<?xml version="1.0" encoding="UTF-8" standalone="no" ?>
<gpx xmlns="http://www.topografix.com/GPX/1/1" xmlns:xsi="http://www.w3.org/2001/XMLSchema-instance" xsi:schemaLocation="http://www.topografix.com/GPX/1/1 http://www.topografix.com/GPX/1/1/gpx.xsd" version="1.1" creator="VisuGPX - https://www.visugpx.com">
  <metadata>
    <name>VTT Sud Bourgogne</name>
    <desc><![CDATA[Cluny - Tournus : circuits VTT XC]]></desc>
  </metadata>
  <trk>
    <name><![CDATA[22_LIAISON_LAIVES_RUFFEY_VERT]]></name>
    <extensions>
      <line xmlns="http://www.topografix.com/GPX/gpx_style/0/2">
        <color>308a00</color>
        <width>4</width>
      </line>
    </extensions>
    <trkseg>
      <trkpt lat="46.67169" lon="4.82994">
        <ele>185</ele>
        <time>2020-09-21T14:30:06Z</time>
      </trkpt>
      <trkpt lat="46.67153" lon="4.82954">
        <ele>186</ele>
        <time>2020-09-21T14:30:13Z</time>
      </trkpt>
      <trkpt lat="46.66986" lon="4.82576">
        <ele>185</ele>
        <time>2020-09-21T14:31:25Z</time>
      </trkpt>
      <trkpt lat="46.66964" lon="4.82527">
        <ele>184</ele>
        <time>2020-09-21T14:31:35Z</time>
      </trkpt>
      <trkpt lat="46.6688" lon="4.82333">
        <ele>184</ele>
        <time>2020-09-21T14:32:12Z</time>
      </trkpt>
      <trkpt lat="46.6684" lon="4.82242">
        <ele>186</ele>
        <time>2020-09-21T14:32:29Z</time>
      </trkpt>
      <trkpt lat="46.66785" lon="4.82111">
        <ele>184</ele>
        <time>2020-09-21T14:32:54Z</time>
      </trkpt>
      <trkpt lat="46.66761" lon="4.82036">
        <ele>181</ele>
        <time>2020-09-21T14:33:07Z</time>
      </trkpt>
      <trkpt lat="46.66741" lon="4.82046">
        <ele>180</ele>
        <time>2020-09-21T14:33:12Z</time>
      </trkpt>
      <trkpt lat="46.6668" lon="4.82078">
        <ele>179</ele>
        <time>2020-09-21T14:33:27Z</time>
      </trkpt>
      <trkpt lat="46.66664" lon="4.82084">
        <ele>179</ele>
        <time>2020-09-21T14:33:31Z</time>
      </trkpt>
      <trkpt lat="46.66604" lon="4.82111">
        <ele>180</ele>
        <time>2020-09-21T14:33:45Z</time>
      </trkpt>
      <trkpt lat="46.66405" lon="4.82192">
        <ele>178</ele>
        <time>2020-09-21T14:34:34Z</time>
      </trkpt>
      <trkpt lat="46.66294" lon="4.82237">
        <ele>179</ele>
        <time>2020-09-21T14:35:01Z</time>
      </trkpt>
      <trkpt lat="46.66255" lon="4.82255">
        <ele>181</ele>
        <time>2020-09-21T14:35:10Z</time>
      </trkpt>
      <trkpt lat="46.66241" lon="4.82264">
        <ele>181</ele>
        <time>2020-09-21T14:35:14Z</time>
      </trkpt>
      <trkpt lat="46.66068" lon="4.824">
        <ele>182</ele>
        <time>2020-09-21T14:36:00Z</time>
      </trkpt>
      <trkpt lat="46.66046" lon="4.8242">
        <ele>182</ele>
        <time>2020-09-21T14:36:06Z</time>
      </trkpt>
      <trkpt lat="46.66004" lon="4.82467">
        <ele>181</ele>
        <time>2020-09-21T14:36:18Z</time>
      </trkpt>
      <trkpt lat="46.65987" lon="4.82487">
        <ele>181</ele>
        <time>2020-09-21T14:36:23Z</time>
      </trkpt>
      <trkpt lat="46.6577" lon="4.82737">
        <ele>180</ele>
        <time>2020-09-21T14:37:28Z</time>
      </trkpt>
      <trkpt lat="46.65732" lon="4.82781">
        <ele>180</ele>
        <time>2020-09-21T14:37:39Z</time>
      </trkpt>
      <trkpt lat="46.65688" lon="4.8282">
        <ele>180</ele>
        <time>2020-09-21T14:37:51Z</time>
      </trkpt>
      <trkpt lat="46.6568" lon="4.82825">
        <ele>180</ele>
        <time>2020-09-21T14:37:53Z</time>
      </trkpt>
      <trkpt lat="46.65713" lon="4.82901">
        <ele>179</ele>
        <time>2020-09-21T14:38:08Z</time>
      </trkpt>
      <trkpt lat="46.65714" lon="4.82904">
        <ele>179</ele>
        <time>2020-09-21T14:38:08Z</time>
      </trkpt>
      <trkpt lat="46.65731" lon="4.82923">
        <ele>178</ele>
        <time>2020-09-21T14:38:13Z</time>
      </trkpt>
      <trkpt lat="46.65788" lon="4.82981">
        <ele>178</ele>
        <time>2020-09-21T14:38:29Z</time>
      </trkpt>
      <trkpt lat="46.65803" lon="4.83">
        <ele>178</ele>
        <time>2020-09-21T14:38:34Z</time>
      </trkpt>
      <trkpt lat="46.6581" lon="4.83013">
        <ele>178</ele>
        <time>2020-09-21T14:38:37Z</time>
      </trkpt>
      <trkpt lat="46.65817" lon="4.83035">
        <ele>179</ele>
        <time>2020-09-21T14:38:40Z</time>
      </trkpt>
      <trkpt lat="46.65832" lon="4.83123">
        <ele>179</ele>
        <time>2020-09-21T14:38:55Z</time>
      </trkpt>
      <trkpt lat="46.65835" lon="4.8313">
        <ele>180</ele>
        <time>2020-09-21T14:38:56Z</time>
      </trkpt>
      <trkpt lat="46.65876" lon="4.83169">
        <ele>179</ele>
        <time>2020-09-21T14:39:08Z</time>
      </trkpt>
      <trkpt lat="46.65951" lon="4.83228">
        <ele>179</ele>
        <time>2020-09-21T14:39:28Z</time>
      </trkpt>
      <trkpt lat="46.65979" lon="4.8325">
        <ele>179</ele>
        <time>2020-09-21T14:39:35Z</time>
      </trkpt>
      <trkpt lat="46.65987" lon="4.83247">
        <ele>179</ele>
        <time>2020-09-21T14:39:37Z</time>
      </trkpt>
      <trkpt lat="46.66089" lon="4.83113">
        <ele>178</ele>
        <time>2020-09-21T14:40:09Z</time>
      </trkpt>
      <trkpt lat="46.66092" lon="4.83108">
        <ele>178</ele>
        <time>2020-09-21T14:40:10Z</time>
      </trkpt>
      <trkpt lat="46.66096" lon="4.83101">
        <ele>178</ele>
        <time>2020-09-21T14:40:12Z</time>
      </trkpt>
      <trkpt lat="46.66162" lon="4.82997">
        <ele>178</ele>
        <time>2020-09-21T14:40:34Z</time>
      </trkpt>
      <trkpt lat="46.66201" lon="4.8293">
        <ele>180</ele>
        <time>2020-09-21T14:40:48Z</time>
      </trkpt>
      <trkpt lat="46.66208" lon="4.82921">
        <ele>181</ele>
        <time>2020-09-21T14:40:51Z</time>
      </trkpt>
      <trkpt lat="46.66211" lon="4.8292">
        <ele>181</ele>
        <time>2020-09-21T14:40:51Z</time>
      </trkpt>
      <trkpt lat="46.66218" lon="4.82923">
        <ele>181</ele>
        <time>2020-09-21T14:40:53Z</time>
      </trkpt>
      <trkpt lat="46.66225" lon="4.82938">
        <ele>181</ele>
        <time>2020-09-21T14:40:56Z</time>
      </trkpt>
      <trkpt lat="46.6624" lon="4.82977">
        <ele>181</ele>
        <time>2020-09-21T14:41:03Z</time>
      </trkpt>
      <trkpt lat="46.6625" lon="4.82996">
        <ele>181</ele>
        <time>2020-09-21T14:41:07Z</time>
      </trkpt>
      <trkpt lat="46.66263" lon="4.83013">
        <ele>181</ele>
        <time>2020-09-21T14:41:11Z</time>
      </trkpt>
      <trkpt lat="46.66363" lon="4.8313">
        <ele>181</ele>
        <time>2020-09-21T14:41:41Z</time>
      </trkpt>
      <trkpt lat="46.66374" lon="4.83135">
        <ele>181</ele>
        <time>2020-09-21T14:41:44Z</time>
      </trkpt>
      <trkpt lat="46.66433" lon="4.83147">
        <ele>180</ele>
        <time>2020-09-21T14:41:58Z</time>
      </trkpt>
      <trkpt lat="46.66443" lon="4.83151">
        <ele>180</ele>
        <time>2020-09-21T14:42:00Z</time>
      </trkpt>
      <trkpt lat="46.66447" lon="4.83157">
        <ele>180</ele>
        <time>2020-09-21T14:42:01Z</time>
      </trkpt>
      <trkpt lat="46.66449" lon="4.83166">
        <ele>179</ele>
        <time>2020-09-21T14:42:03Z</time>
      </trkpt>
      <trkpt lat="46.6646" lon="4.83308">
        <ele>178</ele>
        <time>2020-09-21T14:42:26Z</time>
      </trkpt>
      <trkpt lat="46.66471" lon="4.83389">
        <ele>178</ele>
        <time>2020-09-21T14:42:39Z</time>
      </trkpt>
      <trkpt lat="46.66555" lon="4.83916">
        <ele>176</ele>
        <time>2020-09-21T14:44:06Z</time>
      </trkpt>
      <trkpt lat="46.6656" lon="4.83954">
        <ele>177</ele>
        <time>2020-09-21T14:44:12Z</time>
      </trkpt>
      <trkpt lat="46.66564" lon="4.83962">
        <ele>177</ele>
        <time>2020-09-21T14:44:13Z</time>
      </trkpt>
      <trkpt lat="46.66568" lon="4.83967">
        <ele>177</ele>
        <time>2020-09-21T14:44:15Z</time>
      </trkpt>
      <trkpt lat="46.66562" lon="4.83995">
        <ele>177</ele>
        <time>2020-09-21T14:44:19Z</time>
      </trkpt>
      <trkpt lat="46.66558" lon="4.84035">
        <ele>177</ele>
        <time>2020-09-21T14:44:26Z</time>
      </trkpt>
      <trkpt lat="46.6655" lon="4.84099">
        <ele>177</ele>
        <time>2020-09-21T14:44:36Z</time>
      </trkpt>
      <trkpt lat="46.66542" lon="4.84132">
        <ele>178</ele>
        <time>2020-09-21T14:44:42Z</time>
      </trkpt>
      <trkpt lat="46.66542" lon="4.84133">
        <ele>178</ele>
        <time>2020-09-21T14:44:42Z</time>
      </trkpt>
      <trkpt lat="46.66535" lon="4.84146">
        <ele>178</ele>
        <time>2020-09-21T14:44:45Z</time>
      </trkpt>
      <trkpt lat="46.66505" lon="4.842">
        <ele>179</ele>
        <time>2020-09-21T14:44:56Z</time>
      </trkpt>
      <trkpt lat="46.66489" lon="4.84226">
        <ele>179</ele>
        <time>2020-09-21T14:45:01Z</time>
      </trkpt>
      <trkpt lat="46.66477" lon="4.84245">
        <ele>179</ele>
        <time>2020-09-21T14:45:06Z</time>
      </trkpt>
      <trkpt lat="46.6646" lon="4.84271">
        <ele>179</ele>
        <time>2020-09-21T14:45:11Z</time>
      </trkpt>
      <trkpt lat="46.66436" lon="4.843">
        <ele>179</ele>
        <time>2020-09-21T14:45:19Z</time>
      </trkpt>
      <trkpt lat="46.66419" lon="4.84323">
        <ele>179</ele>
        <time>2020-09-21T14:45:24Z</time>
      </trkpt>
      <trkpt lat="46.66389" lon="4.84367">
        <ele>179</ele>
        <time>2020-09-21T14:45:34Z</time>
      </trkpt>
      <trkpt lat="46.66367" lon="4.844">
        <ele>179</ele>
        <time>2020-09-21T14:45:41Z</time>
      </trkpt>
      <trkpt lat="46.66365" lon="4.84404">
        <ele>180</ele>
        <time>2020-09-21T14:45:42Z</time>
      </trkpt>
      <trkpt lat="46.66332" lon="4.84467">
        <ele>180</ele>
        <time>2020-09-21T14:45:55Z</time>
      </trkpt>
      <trkpt lat="46.66306" lon="4.84535">
        <ele>180</ele>
        <time>2020-09-21T14:46:07Z</time>
      </trkpt>
      <trkpt lat="46.66293" lon="4.84559">
        <ele>180</ele>
        <time>2020-09-21T14:46:12Z</time>
      </trkpt>
      <trkpt lat="46.66282" lon="4.84568">
        <ele>180</ele>
        <time>2020-09-21T14:46:15Z</time>
      </trkpt>
      <trkpt lat="46.66196" lon="4.84599">
        <ele>180</ele>
        <time>2020-09-21T14:46:36Z</time>
      </trkpt>
      <trkpt lat="46.66169" lon="4.84605">
        <ele>180</ele>
        <time>2020-09-21T14:46:42Z</time>
      </trkpt>
      <trkpt lat="46.66138" lon="4.8461">
        <ele>180</ele>
        <time>2020-09-21T14:46:50Z</time>
      </trkpt>
      <trkpt lat="46.66102" lon="4.8462">
        <ele>179</ele>
        <time>2020-09-21T14:46:58Z</time>
      </trkpt>
      <trkpt lat="46.66087" lon="4.84629">
        <ele>180</ele>
        <time>2020-09-21T14:47:02Z</time>
      </trkpt>
      <trkpt lat="46.66076" lon="4.84638">
        <ele>180</ele>
        <time>2020-09-21T14:47:05Z</time>
      </trkpt>
      <trkpt lat="46.66042" lon="4.84669">
        <ele>180</ele>
        <time>2020-09-21T14:47:14Z</time>
      </trkpt>
      <trkpt lat="46.66037" lon="4.84677">
        <ele>179</ele>
        <time>2020-09-21T14:47:16Z</time>
      </trkpt>
      <trkpt lat="46.65998" lon="4.84718">
        <ele>180</ele>
        <time>2020-09-21T14:47:27Z</time>
      </trkpt>
      <trkpt lat="46.65971" lon="4.84745">
        <ele>182</ele>
        <time>2020-09-21T14:47:35Z</time>
      </trkpt>
      <trkpt lat="46.65911" lon="4.84788">
        <ele>184</ele>
        <time>2020-09-21T14:47:50Z</time>
      </trkpt>
      <trkpt lat="46.65899" lon="4.84793">
        <ele>184</ele>
        <time>2020-09-21T14:47:53Z</time>
      </trkpt>
      <trkpt lat="46.65878" lon="4.84798">
        <ele>185</ele>
        <time>2020-09-21T14:47:58Z</time>
      </trkpt>
      <trkpt lat="46.65817" lon="4.84801">
        <ele>188</ele>
        <time>2020-09-21T14:48:13Z</time>
      </trkpt>
      <trkpt lat="46.65811" lon="4.84801">
        <ele>188</ele>
        <time>2020-09-21T14:48:14Z</time>
      </trkpt>
      <trkpt lat="46.65733" lon="4.84811">
        <ele>189</ele>
        <time>2020-09-21T14:48:32Z</time>
      </trkpt>
      <trkpt lat="46.65678" lon="4.84821">
        <ele>189</ele>
        <time>2020-09-21T14:48:45Z</time>
      </trkpt>
      <trkpt lat="46.65649" lon="4.84834">
        <ele>189</ele>
        <time>2020-09-21T14:48:52Z</time>
      </trkpt>
      <trkpt lat="46.65642" lon="4.8484">
        <ele>189</ele>
        <time>2020-09-21T14:48:54Z</time>
      </trkpt>
      <trkpt lat="46.65614" lon="4.84855">
        <ele>189</ele>
        <time>2020-09-21T14:49:01Z</time>
      </trkpt>
      <trkpt lat="46.65506" lon="4.84897">
        <ele>189</ele>
        <time>2020-09-21T14:49:27Z</time>
      </trkpt>
      <trkpt lat="46.65417" lon="4.84931">
        <ele>188</ele>
        <time>2020-09-21T14:49:49Z</time>
      </trkpt>
      <trkpt lat="46.65373" lon="4.84954">
        <ele>188</ele>
        <time>2020-09-21T14:50:00Z</time>
      </trkpt>
      <trkpt lat="46.65361" lon="4.84963">
        <ele>188</ele>
        <time>2020-09-21T14:50:03Z</time>
      </trkpt>
      <trkpt lat="46.65343" lon="4.84976">
        <ele>188</ele>
        <time>2020-09-21T14:50:07Z</time>
      </trkpt>
      <trkpt lat="46.65241" lon="4.8508">
        <ele>190</ele>
        <time>2020-09-21T14:50:37Z</time>
      </trkpt>
      <trkpt lat="46.65235" lon="4.85086">
        <ele>190</ele>
        <time>2020-09-21T14:50:38Z</time>
      </trkpt>
      <trkpt lat="46.65225" lon="4.85094">
        <ele>190</ele>
        <time>2020-09-21T14:50:41Z</time>
      </trkpt>
      <trkpt lat="46.65119" lon="4.8518">
        <ele>192</ele>
        <time>2020-09-21T14:51:09Z</time>
      </trkpt>
      <trkpt lat="46.65107" lon="4.85177">
        <ele>192</ele>
        <time>2020-09-21T14:51:12Z</time>
      </trkpt>
      <trkpt lat="46.65099" lon="4.85168">
        <ele>192</ele>
        <time>2020-09-21T14:51:14Z</time>
      </trkpt>
      <trkpt lat="46.65097" lon="4.85165">
        <ele>192</ele>
        <time>2020-09-21T14:51:15Z</time>
      </trkpt>
      <trkpt lat="46.6507" lon="4.8509">
        <ele>190</ele>
        <time>2020-09-21T14:51:29Z</time>
      </trkpt>
      <trkpt lat="46.65037" lon="4.8498">
        <ele>192</ele>
        <time>2020-09-21T14:51:48Z</time>
      </trkpt>
      <trkpt lat="46.65001" lon="4.84864">
        <ele>191</ele>
        <time>2020-09-21T14:52:08Z</time>
      </trkpt>
      <trkpt lat="46.64989" lon="4.84837">
        <ele>191</ele>
        <time>2020-09-21T14:52:14Z</time>
      </trkpt>
      <trkpt lat="46.64983" lon="4.84827">
        <ele>191</ele>
        <time>2020-09-21T14:52:16Z</time>
      </trkpt>
      <trkpt lat="46.64975" lon="4.84806">
        <ele>192</ele>
        <time>2020-09-21T14:52:19Z</time>
      </trkpt>
      <trkpt lat="46.64952" lon="4.84759">
        <ele>192</ele>
        <time>2020-09-21T14:52:29Z</time>
      </trkpt>
      <trkpt lat="46.64942" lon="4.84746">
        <ele>192</ele>
        <time>2020-09-21T14:52:32Z</time>
      </trkpt>
      <trkpt lat="46.64936" lon="4.84738">
        <ele>192</ele>
        <time>2020-09-21T14:52:34Z</time>
      </trkpt>
      <trkpt lat="46.64912" lon="4.8472">
        <ele>192</ele>
        <time>2020-09-21T14:52:40Z</time>
      </trkpt>
      <trkpt lat="46.64891" lon="4.84703">
        <ele>192</ele>
        <time>2020-09-21T14:52:46Z</time>
      </trkpt>
      <trkpt lat="46.64872" lon="4.8468">
        <ele>192</ele>
        <time>2020-09-21T14:52:51Z</time>
      </trkpt>
      <trkpt lat="46.6482" lon="4.84593">
        <ele>193</ele>
        <time>2020-09-21T14:53:10Z</time>
      </trkpt>
      <trkpt lat="46.64778" lon="4.84524">
        <ele>193</ele>
        <time>2020-09-21T14:53:25Z</time>
      </trkpt>
      <trkpt lat="46.64791" lon="4.84506">
        <ele>193</ele>
        <time>2020-09-21T14:53:29Z</time>
      </trkpt>
      <trkpt lat="46.64785" lon="4.84496">
        <ele>193</ele>
        <time>2020-09-21T14:53:31Z</time>
      </trkpt>
      <trkpt lat="46.64639" lon="4.84291">
        <ele>190</ele>
        <time>2020-09-21T14:54:18Z</time>
      </trkpt>
      <trkpt lat="46.6461" lon="4.8425">
        <ele>190</ele>
        <time>2020-09-21T14:54:28Z</time>
      </trkpt>
      <trkpt lat="46.64598" lon="4.84236">
        <ele>190</ele>
        <time>2020-09-21T14:54:31Z</time>
      </trkpt>
      <trkpt lat="46.64593" lon="4.84236">
        <ele>190</ele>
        <time>2020-09-21T14:54:33Z</time>
      </trkpt>
      <trkpt lat="46.64584" lon="4.84237">
        <ele>190</ele>
        <time>2020-09-21T14:54:35Z</time>
      </trkpt>
      <trkpt lat="46.64578" lon="4.84241">
        <ele>190</ele>
        <time>2020-09-21T14:54:36Z</time>
      </trkpt>
      <trkpt lat="46.6457" lon="4.84243">
        <ele>191</ele>
        <time>2020-09-21T14:54:38Z</time>
      </trkpt>
      <trkpt lat="46.64564" lon="4.84242">
        <ele>191</ele>
        <time>2020-09-21T14:54:40Z</time>
      </trkpt>
      <trkpt lat="46.64558" lon="4.8424">
        <ele>191</ele>
        <time>2020-09-21T14:54:41Z</time>
      </trkpt>
      <trkpt lat="46.6456" lon="4.84251">
        <ele>191</ele>
        <time>2020-09-21T14:54:43Z</time>
      </trkpt>
      <trkpt lat="46.64561" lon="4.84258">
        <ele>191</ele>
        <time>2020-09-21T14:54:44Z</time>
      </trkpt>
      <trkpt lat="46.6456" lon="4.84273">
        <ele>192</ele>
        <time>2020-09-21T14:54:46Z</time>
      </trkpt>
      <trkpt lat="46.64558" lon="4.84278">
        <ele>192</ele>
        <time>2020-09-21T14:54:47Z</time>
      </trkpt>
      <trkpt lat="46.64535" lon="4.84313">
        <ele>193</ele>
        <time>2020-09-21T14:54:55Z</time>
      </trkpt>
      <trkpt lat="46.64521" lon="4.84336">
        <ele>194</ele>
        <time>2020-09-21T14:55:00Z</time>
      </trkpt>
      <trkpt lat="46.64468" lon="4.84425">
        <ele>196</ele>
        <time>2020-09-21T14:55:19Z</time>
      </trkpt>
      <trkpt lat="46.64462" lon="4.84438">
        <ele>196</ele>
        <time>2020-09-21T14:55:21Z</time>
      </trkpt>
      <trkpt lat="46.64459" lon="4.84456">
        <ele>197</ele>
        <time>2020-09-21T14:55:24Z</time>
      </trkpt>
      <trkpt lat="46.64457" lon="4.84488">
        <ele>197</ele>
        <time>2020-09-21T14:55:30Z</time>
      </trkpt>
      <trkpt lat="46.64458" lon="4.84503">
        <ele>198</ele>
        <time>2020-09-21T14:55:32Z</time>
      </trkpt>
      <trkpt lat="46.6446" lon="4.84512">
        <ele>198</ele>
        <time>2020-09-21T14:55:33Z</time>
      </trkpt>
      <trkpt lat="46.64467" lon="4.84527">
        <ele>198</ele>
        <time>2020-09-21T14:55:36Z</time>
      </trkpt>
      <trkpt lat="46.64493" lon="4.84572">
        <ele>199</ele>
        <time>2020-09-21T14:55:46Z</time>
      </trkpt>
      <trkpt lat="46.64523" lon="4.84627">
        <ele>199</ele>
        <time>2020-09-21T14:55:57Z</time>
      </trkpt>
      <trkpt lat="46.64561" lon="4.8469">
        <ele>200</ele>
        <time>2020-09-21T14:56:11Z</time>
      </trkpt>
      <trkpt lat="46.64565" lon="4.84697">
        <ele>200</ele>
        <time>2020-09-21T14:56:12Z</time>
      </trkpt>
      <trkpt lat="46.64587" lon="4.84737">
        <ele>201</ele>
        <time>2020-09-21T14:56:20Z</time>
      </trkpt>
      <trkpt lat="46.64594" lon="4.8475">
        <ele>201</ele>
        <time>2020-09-21T14:56:23Z</time>
      </trkpt>
      <trkpt lat="46.64629" lon="4.84822">
        <ele>200</ele>
        <time>2020-09-21T14:56:37Z</time>
      </trkpt>
      <trkpt lat="46.6464" lon="4.84846">
        <ele>200</ele>
        <time>2020-09-21T14:56:42Z</time>
      </trkpt>
      <trkpt lat="46.64646" lon="4.84862">
        <ele>200</ele>
        <time>2020-09-21T14:56:45Z</time>
      </trkpt>
      <trkpt lat="46.64649" lon="4.84874">
        <ele>200</ele>
        <time>2020-09-21T14:56:47Z</time>
      </trkpt>
      <trkpt lat="46.64653" lon="4.84895">
        <ele>200</ele>
        <time>2020-09-21T14:56:50Z</time>
      </trkpt>
      <trkpt lat="46.64654" lon="4.84915">
        <ele>200</ele>
        <time>2020-09-21T14:56:53Z</time>
      </trkpt>
      <trkpt lat="46.64654" lon="4.84932">
        <ele>200</ele>
        <time>2020-09-21T14:56:56Z</time>
      </trkpt>
      <trkpt lat="46.64652" lon="4.84975">
        <ele>201</ele>
        <time>2020-09-21T14:57:03Z</time>
      </trkpt>
      <trkpt lat="46.64652" lon="4.85019">
        <ele>201</ele>
        <time>2020-09-21T14:57:10Z</time>
      </trkpt>
      <trkpt lat="46.64653" lon="4.85034">
        <ele>201</ele>
        <time>2020-09-21T14:57:12Z</time>
      </trkpt>
      <trkpt lat="46.64674" lon="4.85185">
        <ele>201</ele>
        <time>2020-09-21T14:57:37Z</time>
      </trkpt>
      <trkpt lat="46.64673" lon="4.85201">
        <ele>202</ele>
        <time>2020-09-21T14:57:40Z</time>
      </trkpt>
      <trkpt lat="46.64668" lon="4.8522">
        <ele>202</ele>
        <time>2020-09-21T14:57:43Z</time>
      </trkpt>
      <trkpt lat="46.64661" lon="4.85227">
        <ele>203</ele>
        <time>2020-09-21T14:57:45Z</time>
      </trkpt>
      <trkpt lat="46.64633" lon="4.85258">
        <ele>205</ele>
        <time>2020-09-21T14:57:53Z</time>
      </trkpt>
      <trkpt lat="46.64606" lon="4.85281">
        <ele>206</ele>
        <time>2020-09-21T14:58:00Z</time>
      </trkpt>
      <trkpt lat="46.64601" lon="4.85288">
        <ele>206</ele>
        <time>2020-09-21T14:58:02Z</time>
      </trkpt>
      <trkpt lat="46.64597" lon="4.853">
        <ele>206</ele>
        <time>2020-09-21T14:58:04Z</time>
      </trkpt>
      <trkpt lat="46.64594" lon="4.85312">
        <ele>206</ele>
        <time>2020-09-21T14:58:06Z</time>
      </trkpt>
      <trkpt lat="46.64593" lon="4.85332">
        <ele>207</ele>
        <time>2020-09-21T14:58:09Z</time>
      </trkpt>
      <trkpt lat="46.64593" lon="4.85369">
        <ele>207</ele>
        <time>2020-09-21T14:58:15Z</time>
      </trkpt>
      <trkpt lat="46.64594" lon="4.85382">
        <ele>206</ele>
        <time>2020-09-21T14:58:17Z</time>
      </trkpt>
      <trkpt lat="46.64595" lon="4.85386">
        <ele>206</ele>
        <time>2020-09-21T14:58:18Z</time>
      </trkpt>
      <trkpt lat="46.646" lon="4.85407">
        <ele>206</ele>
        <time>2020-09-21T14:58:22Z</time>
      </trkpt>
      <trkpt lat="46.64601" lon="4.85415">
        <ele>206</ele>
        <time>2020-09-21T14:58:23Z</time>
      </trkpt>
      <trkpt lat="46.64619" lon="4.85464">
        <ele>206</ele>
        <time>2020-09-21T14:58:32Z</time>
      </trkpt>
      <trkpt lat="46.64625" lon="4.85486">
        <ele>205</ele>
        <time>2020-09-21T14:58:36Z</time>
      </trkpt>
      <trkpt lat="46.64636" lon="4.85514">
        <ele>205</ele>
        <time>2020-09-21T14:58:41Z</time>
      </trkpt>
      <trkpt lat="46.64641" lon="4.85526">
        <ele>205</ele>
        <time>2020-09-21T14:58:43Z</time>
      </trkpt>
      <trkpt lat="46.64663" lon="4.8559">
        <ele>206</ele>
        <time>2020-09-21T14:58:55Z</time>
      </trkpt>
      <trkpt lat="46.64666" lon="4.856">
        <ele>207</ele>
        <time>2020-09-21T14:58:56Z</time>
      </trkpt>
      <trkpt lat="46.64678" lon="4.85645">
        <ele>208</ele>
        <time>2020-09-21T14:59:04Z</time>
      </trkpt>
      <trkpt lat="46.6468" lon="4.85656">
        <ele>208</ele>
        <time>2020-09-21T14:59:06Z</time>
      </trkpt>
      <trkpt lat="46.64693" lon="4.85719">
        <ele>210</ele>
        <time>2020-09-21T14:59:16Z</time>
      </trkpt>
      <trkpt lat="46.64694" lon="4.85735">
        <ele>210</ele>
        <time>2020-09-21T14:59:19Z</time>
      </trkpt>
      <trkpt lat="46.64698" lon="4.85766">
        <ele>211</ele>
        <time>2020-09-21T14:59:24Z</time>
      </trkpt>
      <trkpt lat="46.647" lon="4.85797">
        <ele>212</ele>
        <time>2020-09-21T14:59:29Z</time>
      </trkpt>
      <trkpt lat="46.647" lon="4.85815">
        <ele>212</ele>
        <time>2020-09-21T14:59:32Z</time>
      </trkpt>
      <trkpt lat="46.64699" lon="4.85837">
        <ele>213</ele>
        <time>2020-09-21T14:59:36Z</time>
      </trkpt>
      <trkpt lat="46.64695" lon="4.85911">
        <ele>215</ele>
        <time>2020-09-21T14:59:47Z</time>
      </trkpt>
      <trkpt lat="46.64674" lon="4.8591">
        <ele>216</ele>
        <time>2020-09-21T14:59:52Z</time>
      </trkpt>
      <trkpt lat="46.64535" lon="4.85911">
        <ele>227</ele>
        <time>2020-09-21T15:00:25Z</time>
      </trkpt>
      <trkpt lat="46.64534" lon="4.85911">
        <ele>227</ele>
        <time>2020-09-21T15:00:25Z</time>
      </trkpt>
      <trkpt lat="46.64509" lon="4.85908">
        <ele>230</ele>
        <time>2020-09-21T15:00:31Z</time>
      </trkpt>
      <trkpt lat="46.64478" lon="4.85897">
        <ele>233</ele>
        <time>2020-09-21T15:00:38Z</time>
      </trkpt>
      <trkpt lat="46.64471" lon="4.85896">
        <ele>234</ele>
        <time>2020-09-21T15:00:40Z</time>
      </trkpt>
      <trkpt lat="46.64457" lon="4.85895">
        <ele>235</ele>
        <time>2020-09-21T15:00:43Z</time>
      </trkpt>
      <trkpt lat="46.64431" lon="4.85894">
        <ele>238</ele>
        <time>2020-09-21T15:00:49Z</time>
      </trkpt>
      <trkpt lat="46.64425" lon="4.85891">
        <ele>239</ele>
        <time>2020-09-21T15:00:51Z</time>
      </trkpt>
      <trkpt lat="46.64418" lon="4.85881">
        <ele>241</ele>
        <time>2020-09-21T15:00:53Z</time>
      </trkpt>
      <trkpt lat="46.64417" lon="4.85833">
        <ele>246</ele>
        <time>2020-09-21T15:01:01Z</time>
      </trkpt>
      <trkpt lat="46.64417" lon="4.85828">
        <ele>246</ele>
        <time>2020-09-21T15:01:02Z</time>
      </trkpt>
      <trkpt lat="46.64414" lon="4.85811">
        <ele>247</ele>
        <time>2020-09-21T15:01:04Z</time>
      </trkpt>
      <trkpt lat="46.64408" lon="4.85801">
        <ele>248</ele>
        <time>2020-09-21T15:01:07Z</time>
      </trkpt>
      <trkpt lat="46.64397" lon="4.85795">
        <ele>249</ele>
        <time>2020-09-21T15:01:09Z</time>
      </trkpt>
      <trkpt lat="46.64387" lon="4.85791">
        <ele>251</ele>
        <time>2020-09-21T15:01:12Z</time>
      </trkpt>
      <trkpt lat="46.64374" lon="4.85784">
        <ele>253</ele>
        <time>2020-09-21T15:01:15Z</time>
      </trkpt>
      <trkpt lat="46.64352" lon="4.85759">
        <ele>257</ele>
        <time>2020-09-21T15:01:21Z</time>
      </trkpt>
      <trkpt lat="46.64337" lon="4.85745">
        <ele>259</ele>
        <time>2020-09-21T15:01:26Z</time>
      </trkpt>
      <trkpt lat="46.64326" lon="4.85738">
        <ele>260</ele>
        <time>2020-09-21T15:01:28Z</time>
      </trkpt>
      <trkpt lat="46.6432" lon="4.85738">
        <ele>261</ele>
        <time>2020-09-21T15:01:30Z</time>
      </trkpt>
      <trkpt lat="46.64305" lon="4.85751">
        <ele>262</ele>
        <time>2020-09-21T15:01:34Z</time>
      </trkpt>
      <trkpt lat="46.64297" lon="4.85754">
        <ele>263</ele>
        <time>2020-09-21T15:01:36Z</time>
      </trkpt>
      <trkpt lat="46.64292" lon="4.85753">
        <ele>263</ele>
        <time>2020-09-21T15:01:37Z</time>
      </trkpt>
      <trkpt lat="46.64281" lon="4.85746">
        <ele>264</ele>
        <time>2020-09-21T15:01:40Z</time>
      </trkpt>
      <trkpt lat="46.6427" lon="4.85734">
        <ele>266</ele>
        <time>2020-09-21T15:01:43Z</time>
      </trkpt>
      <trkpt lat="46.64245" lon="4.857">
        <ele>268</ele>
        <time>2020-09-21T15:01:51Z</time>
      </trkpt>
      <trkpt lat="46.64234" lon="4.8569">
        <ele>269</ele>
        <time>2020-09-21T15:01:54Z</time>
      </trkpt>
      <trkpt lat="46.64221" lon="4.85682">
        <ele>270</ele>
        <time>2020-09-21T15:01:57Z</time>
      </trkpt>
      <trkpt lat="46.642" lon="4.85663">
        <ele>272</ele>
        <time>2020-09-21T15:02:03Z</time>
      </trkpt>
      <trkpt lat="46.64193" lon="4.85657">
        <ele>273</ele>
        <time>2020-09-21T15:02:05Z</time>
      </trkpt>
      <trkpt lat="46.64165" lon="4.85636">
        <ele>275</ele>
        <time>2020-09-21T15:02:12Z</time>
      </trkpt>
      <trkpt lat="46.64149" lon="4.8562">
        <ele>276</ele>
        <time>2020-09-21T15:02:17Z</time>
      </trkpt>
      <trkpt lat="46.64133" lon="4.85608">
        <ele>278</ele>
        <time>2020-09-21T15:02:21Z</time>
      </trkpt>
      <trkpt lat="46.64092" lon="4.85586">
        <ele>281</ele>
        <time>2020-09-21T15:02:31Z</time>
      </trkpt>
      <trkpt lat="46.64086" lon="4.85579">
        <ele>282</ele>
        <time>2020-09-21T15:02:33Z</time>
      </trkpt>
      <trkpt lat="46.64077" lon="4.85565">
        <ele>283</ele>
        <time>2020-09-21T15:02:36Z</time>
      </trkpt>
      <trkpt lat="46.64058" lon="4.85558">
        <ele>284</ele>
        <time>2020-09-21T15:02:41Z</time>
      </trkpt>
      <trkpt lat="46.64024" lon="4.85545">
        <ele>286</ele>
        <time>2020-09-21T15:02:49Z</time>
      </trkpt>
      <trkpt lat="46.64006" lon="4.85537">
        <ele>287</ele>
        <time>2020-09-21T15:02:53Z</time>
      </trkpt>
      <trkpt lat="46.63984" lon="4.85525">
        <ele>288</ele>
        <time>2020-09-21T15:02:59Z</time>
      </trkpt>
      <trkpt lat="46.63974" lon="4.85517">
        <ele>289</ele>
        <time>2020-09-21T15:03:02Z</time>
      </trkpt>
      <trkpt lat="46.63954" lon="4.85488">
        <ele>291</ele>
        <time>2020-09-21T15:03:08Z</time>
      </trkpt>
      <trkpt lat="46.6394" lon="4.85474">
        <ele>292</ele>
        <time>2020-09-21T15:03:12Z</time>
      </trkpt>
      <trkpt lat="46.63921" lon="4.85462">
        <ele>293</ele>
        <time>2020-09-21T15:03:17Z</time>
      </trkpt>
      <trkpt lat="46.63909" lon="4.85454">
        <ele>293</ele>
        <time>2020-09-21T15:03:20Z</time>
      </trkpt>
      <trkpt lat="46.63889" lon="4.85446">
        <ele>293</ele>
        <time>2020-09-21T15:03:25Z</time>
      </trkpt>
      <trkpt lat="46.63877" lon="4.85439">
        <ele>293</ele>
        <time>2020-09-21T15:03:28Z</time>
      </trkpt>
      <trkpt lat="46.63864" lon="4.85426">
        <ele>294</ele>
        <time>2020-09-21T15:03:32Z</time>
      </trkpt>
      <trkpt lat="46.63858" lon="4.85416">
        <ele>294</ele>
        <time>2020-09-21T15:03:34Z</time>
      </trkpt>
      <trkpt lat="46.63856" lon="4.85411">
        <ele>294</ele>
        <time>2020-09-21T15:03:35Z</time>
      </trkpt>
      <trkpt lat="46.63835" lon="4.85399">
        <ele>294</ele>
        <time>2020-09-21T15:03:40Z</time>
      </trkpt>
      <trkpt lat="46.63824" lon="4.85396">
        <ele>294</ele>
        <time>2020-09-21T15:03:42Z</time>
      </trkpt>
      <trkpt lat="46.63812" lon="4.85402">
        <ele>293</ele>
        <time>2020-09-21T15:03:45Z</time>
      </trkpt>
      <trkpt lat="46.63799" lon="4.85409">
        <ele>291</ele>
        <time>2020-09-21T15:03:49Z</time>
      </trkpt>
      <trkpt lat="46.63787" lon="4.85423">
        <ele>289</ele>
        <time>2020-09-21T15:03:52Z</time>
      </trkpt>
      <trkpt lat="46.63771" lon="4.8545">
        <ele>285</ele>
        <time>2020-09-21T15:03:58Z</time>
      </trkpt>
      <trkpt lat="46.63765" lon="4.8545">
        <ele>285</ele>
        <time>2020-09-21T15:03:59Z</time>
      </trkpt>
      <trkpt lat="46.63759" lon="4.85455">
        <ele>284</ele>
        <time>2020-09-21T15:04:01Z</time>
      </trkpt>
      <trkpt lat="46.63759" lon="4.85461">
        <ele>283</ele>
        <time>2020-09-21T15:04:02Z</time>
      </trkpt>
      <trkpt lat="46.6376" lon="4.85469">
        <ele>282</ele>
        <time>2020-09-21T15:04:03Z</time>
      </trkpt>
      <trkpt lat="46.63758" lon="4.85478">
        <ele>281</ele>
        <time>2020-09-21T15:04:05Z</time>
      </trkpt>
      <trkpt lat="46.63747" lon="4.85496">
        <ele>278</ele>
        <time>2020-09-21T15:04:09Z</time>
      </trkpt>
      <trkpt lat="46.6373" lon="4.85512">
        <ele>273</ele>
        <time>2020-09-21T15:04:13Z</time>
      </trkpt>
      <trkpt lat="46.63721" lon="4.85521">
        <ele>271</ele>
        <time>2020-09-21T15:04:16Z</time>
      </trkpt>
      <trkpt lat="46.63706" lon="4.85529">
        <ele>267</ele>
        <time>2020-09-21T15:04:20Z</time>
      </trkpt>
      <trkpt lat="46.63691" lon="4.85536">
        <ele>264</ele>
        <time>2020-09-21T15:04:23Z</time>
      </trkpt>
      <trkpt lat="46.63668" lon="4.85548">
        <ele>260</ele>
        <time>2020-09-21T15:04:29Z</time>
      </trkpt>
      <trkpt lat="46.63656" lon="4.85558">
        <ele>257</ele>
        <time>2020-09-21T15:04:32Z</time>
      </trkpt>
      <trkpt lat="46.63647" lon="4.85563">
        <ele>256</ele>
        <time>2020-09-21T15:04:35Z</time>
      </trkpt>
      <trkpt lat="46.6363" lon="4.8557">
        <ele>253</ele>
        <time>2020-09-21T15:04:39Z</time>
      </trkpt>
      <trkpt lat="46.63594" lon="4.85583">
        <ele>246</ele>
        <time>2020-09-21T15:04:47Z</time>
      </trkpt>
      <trkpt lat="46.63582" lon="4.85592">
        <ele>244</ele>
        <time>2020-09-21T15:04:50Z</time>
      </trkpt>
      <trkpt lat="46.63583" lon="4.85586">
        <ele>245</ele>
        <time>2020-09-21T15:04:51Z</time>
      </trkpt>
      <trkpt lat="46.63582" lon="4.85597">
        <ele>243</ele>
        <time>2020-09-21T15:04:53Z</time>
      </trkpt>
      <trkpt lat="46.63577" lon="4.85607">
        <ele>242</ele>
        <time>2020-09-21T15:04:55Z</time>
      </trkpt>
      <trkpt lat="46.63532" lon="4.85683">
        <ele>234</ele>
        <time>2020-09-21T15:05:11Z</time>
      </trkpt>
      <trkpt lat="46.63504" lon="4.85725">
        <ele>232</ele>
        <time>2020-09-21T15:05:21Z</time>
      </trkpt>
      <trkpt lat="46.63489" lon="4.8575">
        <ele>230</ele>
        <time>2020-09-21T15:05:26Z</time>
      </trkpt>
      <trkpt lat="46.63485" lon="4.85765">
        <ele>230</ele>
        <time>2020-09-21T15:05:29Z</time>
      </trkpt>
      <trkpt lat="46.63476" lon="4.85752">
        <ele>230</ele>
        <time>2020-09-21T15:05:32Z</time>
      </trkpt>
      <trkpt lat="46.63456" lon="4.85728">
        <ele>230</ele>
        <time>2020-09-21T15:05:38Z</time>
      </trkpt>
      <trkpt lat="46.63442" lon="4.85713">
        <ele>229</ele>
        <time>2020-09-21T15:05:42Z</time>
      </trkpt>
      <trkpt lat="46.6336" lon="4.85641">
        <ele>229</ele>
        <time>2020-09-21T15:06:04Z</time>
      </trkpt>
      <trkpt lat="46.63338" lon="4.85619">
        <ele>229</ele>
        <time>2020-09-21T15:06:10Z</time>
      </trkpt>
      <trkpt lat="46.63312" lon="4.85597">
        <ele>230</ele>
        <time>2020-09-21T15:06:17Z</time>
      </trkpt>
      <trkpt lat="46.63294" lon="4.85583">
        <ele>230</ele>
        <time>2020-09-21T15:06:22Z</time>
      </trkpt>
      <trkpt lat="46.63235" lon="4.8553">
        <ele>232</ele>
        <time>2020-09-21T15:06:38Z</time>
      </trkpt>
      <trkpt lat="46.63218" lon="4.85516">
        <ele>233</ele>
        <time>2020-09-21T15:06:43Z</time>
      </trkpt>
      <trkpt lat="46.63196" lon="4.85498">
        <ele>233</ele>
        <time>2020-09-21T15:06:49Z</time>
      </trkpt>
      <trkpt lat="46.63181" lon="4.85487">
        <ele>234</ele>
        <time>2020-09-21T15:06:53Z</time>
      </trkpt>
      <trkpt lat="46.63184" lon="4.85494">
        <ele>234</ele>
        <time>2020-09-21T15:06:54Z</time>
      </trkpt>
      <trkpt lat="46.63187" lon="4.85503">
        <ele>234</ele>
        <time>2020-09-21T15:06:56Z</time>
      </trkpt>
      <trkpt lat="46.63192" lon="4.85522">
        <ele>234</ele>
        <time>2020-09-21T15:06:59Z</time>
      </trkpt>
      <trkpt lat="46.63199" lon="4.85564">
        <ele>234</ele>
        <time>2020-09-21T15:07:06Z</time>
      </trkpt>
      <trkpt lat="46.63203" lon="4.85575">
        <ele>234</ele>
        <time>2020-09-21T15:07:08Z</time>
      </trkpt>
    </trkseg>
  </trk>
</gpx>